Terminal Aerodrome Forecast
Issued by NWS

Home | Current Version | Previous Version | Graphics & Text | Print | Product List | Glossary On
Versions: 1 2 3 4 5 6 7 8 9 10 11 12 13 14 15 16 17 18
000
FTUS41 KCLE 171000 AAB
TAFFDY
TAF AMD
KFDY 171033Z 1711/1806 19008KT P6SM SCT015 BKN250
      TEMPO 1711/1713 BKN015
     FM171500 23016G25KT P6SM SCT020 SCT050
     FM180000 27012KT P6SM VCSH OVC035
     FM180400 27012KT P6SM VCSH OVC025=

USA.gov is the U.S. government's official web portal to all federal, state and local government web resources and services.